Caledon, Canada
Current Conditions -  °F | °C
As of 1:00 AM on Thursday 29 Jan 2015 (Local Time) from CYYZ Reporting Station
Overcast Overcast  
Wind Chill: 11°   Ceiling: 18000
Heat Index: 19°   Visibility: 15mi
Dew Point:   Wind: 6mph
Humidity: 63%   Direction: 160°SSE
Pressure: 30.23"   Gusts: NA
Location:  43.87°N, 80°W
Report Text: CYYZ 290600Z 16005KT 15SM FEW150 OVC180 M07/M13 A3023 RMK AS2AS6 SLP246
Loading
Personal Weather Stations






























Interactive Weather Map New forecast layout! Learn more

10-Day Weather Forecast

Advertisements
Track Severe Weather on mobile